sensor_id;sensor_type;location;lat;lon;timestamp;P1;durP1;ratioP1;P2;durP2;ratioP2
20966;SDS011;10642;50.682;18.510;2023-06-22T00:00:55;26.60;;;19.23;;
20966;SDS011;10642;50.682;18.510;2023-06-22T00:03:22;30.27;;;19.40;;
20966;SDS011;10642;50.682;18.510;2023-06-22T00:05:51;27.50;;;20.30;;
20966;SDS011;10642;50.682;18.510;2023-06-22T00:08:18;25.70;;;20.13;;
20966;SDS011;10642;50.682;18.510;2023-06-22T00:10:45;31.07;;;18.43;;
20966;SDS011;10642;50.682;18.510;2023-06-22T00:13:13;28.57;;;19.70;;
20966;SDS011;10642;50.682;18.510;2023-06-22T00:15:40;26.67;;;18.40;;
20966;SDS011;10642;50.682;18.510;2023-06-22T00:18:08;24.87;;;18.13;;
20966;SDS011;10642;50.682;18.510;2023-06-22T00:20:36;23.80;;;18.13;;
20966;SDS011;10642;50.682;18.510;2023-06-22T00:23:04;23.87;;;17.20;;
20966;SDS011;10642;50.682;18.510;2023-06-22T00:25:38;32.67;;;19.40;;
20966;SDS011;10642;50.682;18.510;2023-06-22T00:28:06;20.80;;;15.30;;
20966;SDS011;10642;50.682;18.510;2023-06-22T00:30:34;23.40;;;18.00;;
20966;SDS011;10642;50.682;18.510;2023-06-22T00:33:01;28.43;;;16.57;;
20966;SDS011;10642;50.682;18.510;2023-06-22T00:35:28;21.87;;;17.53;;
20966;SDS011;10642;50.682;18.510;2023-06-22T00:37:59;24.73;;;18.33;;
20966;SDS011;10642;50.682;18.510;2023-06-22T00:40:28;23.77;;;17.73;;
20966;SDS011;10642;50.682;18.510;2023-06-22T00:42:57;28.43;;;18.13;;
20966;SDS011;10642;50.682;18.510;2023-06-22T00:45:24;26.33;;;18.27;;
20966;SDS011;10642;50.682;18.510;2023-06-22T00:47:54;27.00;;;19.90;;
20966;SDS011;10642;50.682;18.510;2023-06-22T00:50:24;28.23;;;19.80;;
20966;SDS011;10642;50.682;18.510;2023-06-22T00:52:53;25.83;;;17.80;;
20966;SDS011;10642;50.682;18.510;2023-06-22T00:55:20;26.30;;;18.27;;
20966;SDS011;10642;50.682;18.510;2023-06-22T00:57:48;25.23;;;18.50;;
20966;SDS011;10642;50.682;18.510;2023-06-22T01:00:15;26.73;;;19.10;;
20966;SDS011;10642;50.682;18.510;2023-06-22T01:02:46;27.47;;;19.17;;
20966;SDS011;10642;50.682;18.510;2023-06-22T01:05:14;30.67;;;19.83;;
20966;SDS011;10642;50.682;18.510;2023-06-22T01:07:44;27.80;;;19.33;;
20966;SDS011;10642;50.682;18.510;2023-06-22T01:10:19;38.40;;;20.63;;
20966;SDS011;10642;50.682;18.510;2023-06-22T01:12:53;29.33;;;19.50;;
20966;SDS011;10642;50.682;18.510;2023-06-22T01:15:27;29.07;;;20.30;;
20966;SDS011;10642;50.682;18.510;2023-06-22T01:17:55;30.87;;;21.37;;
20966;SDS011;10642;50.682;18.510;2023-06-22T01:20:23;31.73;;;21.50;;
20966;SDS011;10642;50.682;18.510;2023-06-22T01:25:19;26.13;;;19.53;;
20966;SDS011;10642;50.682;18.510;2023-06-22T01:30:13;26.87;;;19.87;;
20966;SDS011;10642;50.682;18.510;2023-06-22T01:32:42;25.53;;;18.07;;
20966;SDS011;10642;50.682;18.510;2023-06-22T01:35:09;29.83;;;18.97;;
20966;SDS011;10642;50.682;18.510;2023-06-22T01:37:36;40.50;;;21.37;;
20966;SDS011;10642;50.682;18.510;2023-06-22T01:40:04;31.90;;;22.20;;
20966;SDS011;10642;50.682;18.510;2023-06-22T01:42:32;34.63;;;22.37;;
20966;SDS011;10642;50.682;18.510;2023-06-22T01:45:00;34.70;;;21.83;;
20966;SDS011;10642;50.682;18.510;2023-06-22T01:47:29;34.60;;;23.53;;
20966;SDS011;10642;50.682;18.510;2023-06-22T01:49:56;31.23;;;22.63;;
20966;SDS011;10642;50.682;18.510;2023-06-22T01:52:23;31.73;;;21.63;;
20966;SDS011;10642;50.682;18.510;2023-06-22T01:54:50;34.60;;;20.40;;
20966;SDS011;10642;50.682;18.510;2023-06-22T01:57:18;32.57;;;22.17;;
20966;SDS011;10642;50.682;18.510;2023-06-22T01:59:48;32.93;;;21.63;;
20966;SDS011;10642;50.682;18.510;2023-06-22T02:02:17;35.63;;;20.53;;
20966;SDS011;10642;50.682;18.510;2023-06-22T02:04:48;31.00;;;21.50;;
20966;SDS011;10642;50.682;18.510;2023-06-22T02:07:18;32.93;;;20.33;;
20966;SDS011;10642;50.682;18.510;2023-06-22T02:09:45;36.17;;;20.10;;
20966;SDS011;10642;50.682;18.510;2023-06-22T02:12:13;27.20;;;20.13;;
20966;SDS011;10642;50.682;18.510;2023-06-22T02:14:41;34.13;;;21.30;;
20966;SDS011;10642;50.682;18.510;2023-06-22T02:17:08;29.17;;;21.30;;
20966;SDS011;10642;50.682;18.510;2023-06-22T02:19:36;32.40;;;21.40;;
20966;SDS011;10642;50.682;18.510;2023-06-22T02:22:03;33.90;;;19.93;;
20966;SDS011;10642;50.682;18.510;2023-06-22T02:24:30;31.60;;;20.73;;
20966;SDS011;10642;50.682;18.510;2023-06-22T02:26:59;36.67;;;22.03;;
20966;SDS011;10642;50.682;18.510;2023-06-22T02:29:26;30.97;;;20.40;;
20966;SDS011;10642;50.682;18.510;2023-06-22T02:31:56;28.77;;;21.33;;
20966;SDS011;10642;50.682;18.510;2023-06-22T02:34:23;41.63;;;20.77;;
20966;SDS011;10642;50.682;18.510;2023-06-22T02:36:50;30.03;;;21.13;;
20966;SDS011;10642;50.682;18.510;2023-06-22T02:39:19;32.33;;;20.07;;
20966;SDS011;10642;50.682;18.510;2023-06-22T02:41:46;30.43;;;21.23;;
20966;SDS011;10642;50.682;18.510;2023-06-22T02:44:14;27.33;;;20.23;;
20966;SDS011;10642;50.682;18.510;2023-06-22T02:46:41;37.93;;;19.77;;
20966;SDS011;10642;50.682;18.510;2023-06-22T02:49:08;30.93;;;19.50;;
20966;SDS011;10642;50.682;18.510;2023-06-22T02:51:35;33.00;;;20.47;;
20966;SDS011;10642;50.682;18.510;2023-06-22T02:54:02;29.10;;;20.97;;
20966;SDS011;10642;50.682;18.510;2023-06-22T02:56:30;29.60;;;20.20;;
20966;SDS011;10642;50.682;18.510;2023-06-22T02:58:59;32.53;;;19.93;;
20966;SDS011;10642;50.682;18.510;2023-06-22T03:01:36;32.17;;;20.53;;
20966;SDS011;10642;50.682;18.510;2023-06-22T03:04:23;32.93;;;22.73;;
20966;SDS011;10642;50.682;18.510;2023-06-22T03:06:50;34.03;;;21.63;;
20966;SDS011;10642;50.682;18.510;2023-06-22T03:09:18;31.77;;;22.40;;
20966;SDS011;10642;50.682;18.510;2023-06-22T03:11:45;29.73;;;22.30;;
20966;SDS011;10642;50.682;18.510;2023-06-22T03:14:12;40.63;;;22.23;;
20966;SDS011;10642;50.682;18.510;2023-06-22T03:16:39;33.93;;;22.43;;
20966;SDS011;10642;50.682;18.510;2023-06-22T03:19:07;28.70;;;21.93;;
20966;SDS011;10642;50.682;18.510;2023-06-22T03:21:35;32.47;;;21.97;;
20966;SDS011;10642;50.682;18.510;2023-06-22T03:24:04;37.67;;;22.40;;
20966;SDS011;10642;50.682;18.510;2023-06-22T03:26:31;34.50;;;23.73;;
20966;SDS011;10642;50.682;18.510;2023-06-22T03:28:58;33.87;;;24.13;;
20966;SDS011;10642;50.682;18.510;2023-06-22T03:31:28;35.00;;;24.20;;
20966;SDS011;10642;50.682;18.510;2023-06-22T03:33:55;35.23;;;22.43;;
20966;SDS011;10642;50.682;18.510;2023-06-22T03:36:22;32.23;;;22.17;;
20966;SDS011;10642;50.682;18.510;2023-06-22T03:38:50;32.73;;;21.67;;
20966;SDS011;10642;50.682;18.510;2023-06-22T03:41:17;34.20;;;22.47;;
20966;SDS011;10642;50.682;18.510;2023-06-22T03:43:45;33.20;;;21.43;;
20966;SDS011;10642;50.682;18.510;2023-06-22T03:46:12;30.63;;;21.60;;
20966;SDS011;10642;50.682;18.510;2023-06-22T03:48:39;29.60;;;21.23;;
20966;SDS011;10642;50.682;18.510;2023-06-22T03:51:06;28.43;;;20.10;;
20966;SDS011;10642;50.682;18.510;2023-06-22T03:53:33;28.53;;;20.70;;
20966;SDS011;10642;50.682;18.510;2023-06-22T03:56:00;28.67;;;20.67;;
20966;SDS011;10642;50.682;18.510;2023-06-22T03:58:27;27.87;;;19.70;;
20966;SDS011;10642;50.682;18.510;2023-06-22T04:00:59;29.07;;;20.00;;
20966;SDS011;10642;50.682;18.510;2023-06-22T04:03:26;27.87;;;19.70;;
20966;SDS011;10642;50.682;18.510;2023-06-22T04:05:53;30.27;;;20.40;;
20966;SDS011;10642;50.682;18.510;2023-06-22T04:08:20;29.20;;;19.73;;
20966;SDS011;10642;50.682;18.510;2023-06-22T04:10:48;25.00;;;18.40;;
20966;SDS011;10642;50.682;18.510;2023-06-22T04:13:15;27.63;;;19.90;;
20966;SDS011;10642;50.682;18.510;2023-06-22T04:15:42;30.30;;;19.43;;
20966;SDS011;10642;50.682;18.510;2023-06-22T04:18:08;32.20;;;20.37;;
20966;SDS011;10642;50.682;18.510;2023-06-22T04:20:35;28.77;;;19.53;;
20966;SDS011;10642;50.682;18.510;2023-06-22T04:23:03;30.07;;;19.87;;
20966;SDS011;10642;50.682;18.510;2023-06-22T04:25:30;27.47;;;19.47;;
20966;SDS011;10642;50.682;18.510;2023-06-22T04:27:57;26.63;;;19.40;;
20966;SDS011;10642;50.682;18.510;2023-06-22T04:30:24;25.87;;;17.80;;
20966;SDS011;10642;50.682;18.510;2023-06-22T04:32:51;27.93;;;17.87;;
20966;SDS011;10642;50.682;18.510;2023-06-22T04:35:26;24.83;;;17.63;;
20966;SDS011;10642;50.682;18.510;2023-06-22T04:37:57;23.07;;;17.27;;
20966;SDS011;10642;50.682;18.510;2023-06-22T04:40:25;26.47;;;17.47;;
20966;SDS011;10642;50.682;18.510;2023-06-22T04:42:53;22.53;;;15.43;;
20966;SDS011;10642;50.682;18.510;2023-06-22T04:45:20;27.67;;;16.80;;
20966;SDS011;10642;50.682;18.510;2023-06-22T04:47:48;22.27;;;15.63;;
20966;SDS011;10642;50.682;18.510;2023-06-22T04:50:15;18.93;;;14.80;;
20966;SDS011;10642;50.682;18.510;2023-06-22T04:52:42;24.90;;;15.43;;
20966;SDS011;10642;50.682;18.510;2023-06-22T04:55:09;20.83;;;14.10;;
20966;SDS011;10642;50.682;18.510;2023-06-22T04:57:35;19.03;;;13.80;;
20966;SDS011;10642;50.682;18.510;2023-06-22T05:00:06;18.47;;;13.17;;
20966;SDS011;10642;50.682;18.510;2023-06-22T05:02:39;17.77;;;12.87;;
20966;SDS011;10642;50.682;18.510;2023-06-22T05:05:07;17.37;;;13.07;;
20966;SDS011;10642;50.682;18.510;2023-06-22T05:07:34;21.30;;;13.50;;
20966;SDS011;10642;50.682;18.510;2023-06-22T05:10:04;18.40;;;13.07;;
20966;SDS011;10642;50.682;18.510;2023-06-22T05:12:31;18.70;;;12.33;;
20966;SDS011;10642;50.682;18.510;2023-06-22T05:14:58;17.77;;;11.80;;
20966;SDS011;10642;50.682;18.510;2023-06-22T05:17:25;15.93;;;11.07;;
20966;SDS011;10642;50.682;18.510;2023-06-22T05:19:52;15.30;;;11.00;;
20966;SDS011;10642;50.682;18.510;2023-06-22T05:22:19;16.17;;;11.10;;
20966;SDS011;10642;50.682;18.510;2023-06-22T05:24:46;15.50;;;10.27;;
20966;SDS011;10642;50.682;18.510;2023-06-22T05:27:13;15.27;;;10.53;;
20966;SDS011;10642;50.682;18.510;2023-06-22T05:29:40;20.73;;;10.90;;
20966;SDS011;10642;50.682;18.510;2023-06-22T05:32:09;18.77;;;10.73;;
20966;SDS011;10642;50.682;18.510;2023-06-22T05:34:36;14.10;;;10.47;;
20966;SDS011;10642;50.682;18.510;2023-06-22T05:37:03;15.90;;;10.43;;
20966;SDS011;10642;50.682;18.510;2023-06-22T05:39:30;13.97;;;10.23;;
20966;SDS011;10642;50.682;18.510;2023-06-22T05:41:57;15.27;;;10.07;;
20966;SDS011;10642;50.682;18.510;2023-06-22T05:44:24;13.83;;;10.47;;
20966;SDS011;10642;50.682;18.510;2023-06-22T05:46:51;16.07;;;10.77;;
20966;SDS011;10642;50.682;18.510;2023-06-22T05:49:18;18.80;;;10.33;;
20966;SDS011;10642;50.682;18.510;2023-06-22T05:51:45;17.67;;;11.57;;
20966;SDS011;10642;50.682;18.510;2023-06-22T05:54:12;15.17;;;11.20;;
20966;SDS011;10642;50.682;18.510;2023-06-22T05:56:40;14.67;;;10.37;;
20966;SDS011;10642;50.682;18.510;2023-06-22T05:59:07;14.47;;;10.90;;
20966;SDS011;10642;50.682;18.510;2023-06-22T06:01:34;15.20;;;10.87;;
20966;SDS011;10642;50.682;18.510;2023-06-22T06:04:03;15.00;;;10.73;;
20966;SDS011;10642;50.682;18.510;2023-06-22T06:06:31;14.23;;;10.77;;
20966;SDS011;10642;50.682;18.510;2023-06-22T06:08:58;20.27;;;11.23;;
20966;SDS011;10642;50.682;18.510;2023-06-22T06:11:26;16.77;;;10.73;;
20966;SDS011;10642;50.682;18.510;2023-06-22T06:13:53;17.00;;;12.17;;
20966;SDS011;10642;50.682;18.510;2023-06-22T06:16:21;15.63;;;10.37;;
20966;SDS011;10642;50.682;18.510;2023-06-22T06:18:48;18.80;;;10.03;;
20966;SDS011;10642;50.682;18.510;2023-06-22T06:21:17;17.67;;;11.30;;
20966;SDS011;10642;50.682;18.510;2023-06-22T06:23:44;16.07;;;11.57;;
20966;SDS011;10642;50.682;18.510;2023-06-22T06:26:10;15.70;;;11.20;;
20966;SDS011;10642;50.682;18.510;2023-06-22T06:28:37;17.07;;;10.40;;
20966;SDS011;10642;50.682;18.510;2023-06-22T06:31:04;16.67;;;11.50;;
20966;SDS011;10642;50.682;18.510;2023-06-22T06:33:34;14.53;;;10.80;;
20966;SDS011;10642;50.682;18.510;2023-06-22T06:36:01;14.33;;;9.27;;
20966;SDS011;10642;50.682;18.510;2023-06-22T06:38:30;17.03;;;10.43;;
20966;SDS011;10642;50.682;18.510;2023-06-22T06:40:58;15.37;;;10.80;;
20966;SDS011;10642;50.682;18.510;2023-06-22T06:43:25;14.40;;;9.97;;
20966;SDS011;10642;50.682;18.510;2023-06-22T06:45:52;16.17;;;9.73;;
20966;SDS011;10642;50.682;18.510;2023-06-22T06:48:19;13.63;;;9.57;;
20966;SDS011;10642;50.682;18.510;2023-06-22T06:50:46;9.67;;;7.70;;
20966;SDS011;10642;50.682;18.510;2023-06-22T06:53:13;15.70;;;8.87;;
20966;SDS011;10642;50.682;18.510;2023-06-22T06:55:40;12.57;;;9.30;;
20966;SDS011;10642;50.682;18.510;2023-06-22T06:58:07;10.03;;;7.87;;
20966;SDS011;10642;50.682;18.510;2023-06-22T07:00:36;11.97;;;8.50;;
20966;SDS011;10642;50.682;18.510;2023-06-22T07:03:03;13.80;;;8.93;;
20966;SDS011;10642;50.682;18.510;2023-06-22T07:05:31;13.13;;;9.27;;
20966;SDS011;10642;50.682;18.510;2023-06-22T07:07:57;13.80;;;8.70;;
20966;SDS011;10642;50.682;18.510;2023-06-22T07:10:24;11.70;;;8.97;;
20966;SDS011;10642;50.682;18.510;2023-06-22T07:12:52;13.00;;;8.83;;
20966;SDS011;10642;50.682;18.510;2023-06-22T07:15:19;11.83;;;9.20;;
20966;SDS011;10642;50.682;18.510;2023-06-22T07:17:46;14.53;;;8.20;;
20966;SDS011;10642;50.682;18.510;2023-06-22T07:20:13;13.97;;;8.83;;
20966;SDS011;10642;50.682;18.510;2023-06-22T07:22:40;14.53;;;9.47;;
20966;SDS011;10642;50.682;18.510;2023-06-22T07:25:07;14.43;;;9.87;;
20966;SDS011;10642;50.682;18.510;2023-06-22T07:27:45;12.60;;;8.83;;
20966;SDS011;10642;50.682;18.510;2023-06-22T07:30:13;14.27;;;10.30;;
20966;SDS011;10642;50.682;18.510;2023-06-22T07:32:40;12.40;;;9.37;;
20966;SDS011;10642;50.682;18.510;2023-06-22T07:35:07;13.47;;;9.63;;
20966;SDS011;10642;50.682;18.510;2023-06-22T07:37:34;13.60;;;10.27;;
20966;SDS011;10642;50.682;18.510;2023-06-22T07:40:02;13.70;;;10.37;;
20966;SDS011;10642;50.682;18.510;2023-06-22T07:42:33;14.70;;;10.00;;
20966;SDS011;10642;50.682;18.510;2023-06-22T07:44:59;14.13;;;9.97;;
20966;SDS011;10642;50.682;18.510;2023-06-22T07:47:27;13.40;;;8.87;;
20966;SDS011;10642;50.682;18.510;2023-06-22T07:49:55;13.20;;;10.40;;
20966;SDS011;10642;50.682;18.510;2023-06-22T07:52:24;13.47;;;10.47;;
20966;SDS011;10642;50.682;18.510;2023-06-22T07:54:52;12.73;;;10.10;;
20966;SDS011;10642;50.682;18.510;2023-06-22T07:57:19;12.27;;;9.80;;
20966;SDS011;10642;50.682;18.510;2023-06-22T07:59:46;15.13;;;10.33;;
20966;SDS011;10642;50.682;18.510;2023-06-22T08:02:13;14.37;;;10.07;;
20966;SDS011;10642;50.682;18.510;2023-06-22T08:04:40;13.37;;;10.07;;
20966;SDS011;10642;50.682;18.510;2023-06-22T08:07:08;12.00;;;9.37;;
20966;SDS011;10642;50.682;18.510;2023-06-22T08:09:35;15.87;;;10.20;;
20966;SDS011;10642;50.682;18.510;2023-06-22T08:12:02;18.13;;;9.67;;
20966;SDS011;10642;50.682;18.510;2023-06-22T08:14:29;13.97;;;9.33;;
20966;SDS011;10642;50.682;18.510;2023-06-22T08:16:56;13.07;;;9.70;;
20966;SDS011;10642;50.682;18.510;2023-06-22T08:19:23;14.70;;;9.40;;
20966;SDS011;10642;50.682;18.510;2023-06-22T08:21:50;17.90;;;9.37;;
20966;SDS011;10642;50.682;18.510;2023-06-22T08:24:17;13.17;;;9.27;;
20966;SDS011;10642;50.682;18.510;2023-06-22T08:26:44;10.73;;;8.60;;
20966;SDS011;10642;50.682;18.510;2023-06-22T08:29:11;12.93;;;10.07;;
20966;SDS011;10642;50.682;18.510;2023-06-22T08:31:38;14.10;;;9.37;;
20966;SDS011;10642;50.682;18.510;2023-06-22T08:34:05;11.90;;;9.03;;
20966;SDS011;10642;50.682;18.510;2023-06-22T08:36:32;11.00;;;8.50;;
20966;SDS011;10642;50.682;18.510;2023-06-22T08:39:04;12.43;;;8.67;;
20966;SDS011;10642;50.682;18.510;2023-06-22T08:41:31;12.90;;;8.70;;
20966;SDS011;10642;50.682;18.510;2023-06-22T08:43:58;14.93;;;8.87;;
20966;SDS011;10642;50.682;18.510;2023-06-22T08:46:25;12.80;;;7.93;;
20966;SDS011;10642;50.682;18.510;2023-06-22T08:48:57;12.47;;;8.17;;
20966;SDS011;10642;50.682;18.510;2023-06-22T08:51:25;8.70;;;7.50;;
20966;SDS011;10642;50.682;18.510;2023-06-22T08:53:52;10.60;;;7.80;;
20966;SDS011;10642;50.682;18.510;2023-06-22T08:56:19;10.43;;;7.67;;
20966;SDS011;10642;50.682;18.510;2023-06-22T08:58:46;13.30;;;8.20;;
20966;SDS011;10642;50.682;18.510;2023-06-22T09:01:13;9.50;;;7.47;;
20966;SDS011;10642;50.682;18.510;2023-06-22T09:03:42;9.50;;;7.47;;
20966;SDS011;10642;50.682;18.510;2023-06-22T09:06:09;11.70;;;7.43;;
20966;SDS011;10642;50.682;18.510;2023-06-22T09:08:36;10.87;;;7.63;;
20966;SDS011;10642;50.682;18.510;2023-06-22T09:11:03;9.33;;;7.53;;
20966;SDS011;10642;50.682;18.510;2023-06-22T09:13:30;9.27;;;7.43;;
20966;SDS011;10642;50.682;18.510;2023-06-22T09:15:57;11.10;;;8.50;;
20966;SDS011;10642;50.682;18.510;2023-06-22T09:18:24;10.80;;;7.50;;
20966;SDS011;10642;50.682;18.510;2023-06-22T09:20:51;11.77;;;8.20;;
20966;SDS011;10642;50.682;18.510;2023-06-22T09:23:18;11.43;;;8.27;;
20966;SDS011;10642;50.682;18.510;2023-06-22T09:25:45;11.47;;;8.33;;
20966;SDS011;10642;50.682;18.510;2023-06-22T09:28:14;12.33;;;7.70;;
20966;SDS011;10642;50.682;18.510;2023-06-22T09:30:42;9.93;;;8.00;;
20966;SDS011;10642;50.682;18.510;2023-06-22T09:33:10;9.17;;;7.70;;
20966;SDS011;10642;50.682;18.510;2023-06-22T09:35:37;10.70;;;8.07;;
20966;SDS011;10642;50.682;18.510;2023-06-22T09:38:03;9.73;;;8.40;;
20966;SDS011;10642;50.682;18.510;2023-06-22T09:40:30;10.17;;;7.77;;
20966;SDS011;10642;50.682;18.510;2023-06-22T09:42:59;10.43;;;7.50;;
20966;SDS011;10642;50.682;18.510;2023-06-22T09:45:26;10.43;;;8.23;;
20966;SDS011;10642;50.682;18.510;2023-06-22T09:47:53;14.80;;;9.10;;
20966;SDS011;10642;50.682;18.510;2023-06-22T09:50:20;11.70;;;7.47;;
20966;SDS011;10642;50.682;18.510;2023-06-22T09:52:47;11.23;;;8.63;;
20966;SDS011;10642;50.682;18.510;2023-06-22T09:55:17;9.03;;;7.80;;
20966;SDS011;10642;50.682;18.510;2023-06-22T09:57:44;9.20;;;7.70;;
20966;SDS011;10642;50.682;18.510;2023-06-22T10:00:11;12.30;;;9.23;;
20966;SDS011;10642;50.682;18.510;2023-06-22T10:02:40;11.13;;;8.57;;
20966;SDS011;10642;50.682;18.510;2023-06-22T10:05:08;12.30;;;9.70;;
20966;SDS011;10642;50.682;18.510;2023-06-22T10:07:35;11.70;;;8.67;;
20966;SDS011;10642;50.682;18.510;2023-06-22T10:10:06;9.47;;;7.57;;
20966;SDS011;10642;50.682;18.510;2023-06-22T10:12:33;13.07;;;8.50;;
20966;SDS011;10642;50.682;18.510;2023-06-22T10:15:00;14.87;;;8.60;;
20966;SDS011;10642;50.682;18.510;2023-06-22T10:17:28;10.57;;;8.10;;
20966;SDS011;10642;50.682;18.510;2023-06-22T10:19:55;11.23;;;8.27;;
20966;SDS011;10642;50.682;18.510;2023-06-22T10:22:22;11.77;;;8.67;;
20966;SDS011;10642;50.682;18.510;2023-06-22T10:24:48;13.57;;;8.37;;
20966;SDS011;10642;50.682;18.510;2023-06-22T10:27:15;11.93;;;8.37;;
20966;SDS011;10642;50.682;18.510;2023-06-22T10:29:43;12.00;;;8.17;;
20966;SDS011;10642;50.682;18.510;2023-06-22T10:32:10;12.40;;;8.80;;
20966;SDS011;10642;50.682;18.510;2023-06-22T10:34:37;12.17;;;8.83;;
20966;SDS011;10642;50.682;18.510;2023-06-22T10:37:05;10.10;;;8.37;;
20966;SDS011;10642;50.682;18.510;2023-06-22T10:39:32;9.80;;;8.03;;
20966;SDS011;10642;50.682;18.510;2023-06-22T10:41:58;11.13;;;8.27;;
20966;SDS011;10642;50.682;18.510;2023-06-22T10:44:25;12.97;;;9.07;;
20966;SDS011;10642;50.682;18.510;2023-06-22T10:46:52;13.73;;;9.17;;
20966;SDS011;10642;50.682;18.510;2023-06-22T10:49:19;10.30;;;8.40;;
20966;SDS011;10642;50.682;18.510;2023-06-22T10:51:46;10.50;;;8.47;;
20966;SDS011;10642;50.682;18.510;2023-06-22T10:54:13;10.20;;;8.50;;
20966;SDS011;10642;50.682;18.510;2023-06-22T10:56:40;13.60;;;9.30;;
20966;SDS011;10642;50.682;18.510;2023-06-22T10:59:07;11.33;;;8.93;;
20966;SDS011;10642;50.682;18.510;2023-06-22T11:01:34;11.37;;;9.13;;
20966;SDS011;10642;50.682;18.510;2023-06-22T11:04:02;11.00;;;8.90;;
20966;SDS011;10642;50.682;18.510;2023-06-22T11:06:30;13.03;;;9.60;;
20966;SDS011;10642;50.682;18.510;2023-06-22T11:08:57;13.00;;;8.93;;
20966;SDS011;10642;50.682;18.510;2023-06-22T11:11:42;11.80;;;8.67;;
20966;SDS011;10642;50.682;18.510;2023-06-22T11:14:09;13.07;;;8.57;;
20966;SDS011;10642;50.682;18.510;2023-06-22T11:16:36;10.87;;;8.57;;
20966;SDS011;10642;50.682;18.510;2023-06-22T11:19:04;10.67;;;8.70;;
20966;SDS011;10642;50.682;18.510;2023-06-22T11:21:31;10.90;;;8.47;;
20966;SDS011;10642;50.682;18.510;2023-06-22T11:23:59;23.13;;;8.93;;
20966;SDS011;10642;50.682;18.510;2023-06-22T11:26:26;14.10;;;9.03;;
20966;SDS011;10642;50.682;18.510;2023-06-22T11:28:56;13.70;;;8.70;;
20966;SDS011;10642;50.682;18.510;2023-06-22T11:31:23;11.50;;;7.87;;
20966;SDS011;10642;50.682;18.510;2023-06-22T11:33:52;10.57;;;8.40;;
20966;SDS011;10642;50.682;18.510;2023-06-22T11:36:19;12.20;;;8.13;;
20966;SDS011;10642;50.682;18.510;2023-06-22T11:38:46;10.27;;;8.27;;
20966;SDS011;10642;50.682;18.510;2023-06-22T11:41:13;11.00;;;8.60;;
20966;SDS011;10642;50.682;18.510;2023-06-22T11:43:40;11.10;;;8.90;;
20966;SDS011;10642;50.682;18.510;2023-06-22T11:46:07;10.23;;;8.40;;
20966;SDS011;10642;50.682;18.510;2023-06-22T11:48:34;14.77;;;7.73;;
20966;SDS011;10642;50.682;18.510;2023-06-22T11:51:00;10.53;;;8.03;;
20966;SDS011;10642;50.682;18.510;2023-06-22T11:53:29;8.93;;;7.70;;
20966;SDS011;10642;50.682;18.510;2023-06-22T11:55:56;9.80;;;7.53;;
20966;SDS011;10642;50.682;18.510;2023-06-22T11:58:23;10.70;;;7.93;;
20966;SDS011;10642;50.682;18.510;2023-06-22T12:00:50;11.67;;;7.53;;
20966;SDS011;10642;50.682;18.510;2023-06-22T12:03:19;11.10;;;7.47;;
20966;SDS011;10642;50.682;18.510;2023-06-22T12:05:49;9.77;;;7.57;;
20966;SDS011;10642;50.682;18.510;2023-06-22T12:08:16;9.87;;;7.97;;
20966;SDS011;10642;50.682;18.510;2023-06-22T12:10:43;12.23;;;7.67;;
20966;SDS011;10642;50.682;18.510;2023-06-22T12:13:10;10.83;;;7.53;;
20966;SDS011;10642;50.682;18.510;2023-06-22T12:15:37;9.07;;;7.57;;
20966;SDS011;10642;50.682;18.510;2023-06-22T12:18:04;11.97;;;8.53;;
20966;SDS011;10642;50.682;18.510;2023-06-22T12:20:31;12.20;;;8.40;;
20966;SDS011;10642;50.682;18.510;2023-06-22T12:22:58;12.13;;;8.10;;
20966;SDS011;10642;50.682;18.510;2023-06-22T12:25:25;9.50;;;7.37;;
20966;SDS011;10642;50.682;18.510;2023-06-22T12:27:52;9.50;;;7.40;;
20966;SDS011;10642;50.682;18.510;2023-06-22T12:30:20;9.93;;;8.10;;
20966;SDS011;10642;50.682;18.510;2023-06-22T12:32:47;10.13;;;7.83;;
20966;SDS011;10642;50.682;18.510;2023-06-22T12:35:14;9.47;;;7.63;;
20966;SDS011;10642;50.682;18.510;2023-06-22T12:37:41;8.90;;;6.90;;
20966;SDS011;10642;50.682;18.510;2023-06-22T12:40:09;11.77;;;7.73;;
20966;SDS011;10642;50.682;18.510;2023-06-22T12:42:37;9.73;;;7.60;;
20966;SDS011;10642;50.682;18.510;2023-06-22T12:45:04;9.53;;;7.33;;
20966;SDS011;10642;50.682;18.510;2023-06-22T12:47:31;9.70;;;6.93;;
20966;SDS011;10642;50.682;18.510;2023-06-22T12:49:58;9.17;;;6.97;;
20966;SDS011;10642;50.682;18.510;2023-06-22T12:52:25;8.83;;;6.87;;
20966;SDS011;10642;50.682;18.510;2023-06-22T12:54:52;9.07;;;7.10;;
20966;SDS011;10642;50.682;18.510;2023-06-22T12:57:21;9.77;;;7.57;;
20966;SDS011;10642;50.682;18.510;2023-06-22T12:59:50;10.27;;;7.73;;
20966;SDS011;10642;50.682;18.510;2023-06-22T13:02:16;9.10;;;7.50;;
20966;SDS011;10642;50.682;18.510;2023-06-22T13:04:43;9.33;;;7.40;;
20966;SDS011;10642;50.682;18.510;2023-06-22T13:07:10;9.53;;;7.77;;
20966;SDS011;10642;50.682;18.510;2023-06-22T13:09:40;8.40;;;7.00;;
20966;SDS011;10642;50.682;18.510;2023-06-22T13:12:07;9.53;;;7.20;;
20966;SDS011;10642;50.682;18.510;2023-06-22T13:14:34;9.53;;;7.13;;
20966;SDS011;10642;50.682;18.510;2023-06-22T13:17:01;11.33;;;7.23;;
20966;SDS011;10642;50.682;18.510;2023-06-22T13:19:28;9.70;;;7.40;;
20966;SDS011;10642;50.682;18.510;2023-06-22T13:21:59;9.03;;;6.80;;
20966;SDS011;10642;50.682;18.510;2023-06-22T13:24:26;11.47;;;8.00;;
20966;SDS011;10642;50.682;18.510;2023-06-22T13:26:53;11.37;;;8.00;;
20966;SDS011;10642;50.682;18.510;2023-06-22T13:29:20;9.27;;;7.40;;
20966;SDS011;10642;50.682;18.510;2023-06-22T13:31:47;10.70;;;7.63;;
20966;SDS011;10642;50.682;18.510;2023-06-22T13:34:14;11.97;;;6.63;;
20966;SDS011;10642;50.682;18.510;2023-06-22T13:36:41;9.57;;;7.23;;
20966;SDS011;10642;50.682;18.510;2023-06-22T13:39:08;10.80;;;7.53;;
20966;SDS011;10642;50.682;18.510;2023-06-22T13:41:35;11.63;;;7.30;;
20966;SDS011;10642;50.682;18.510;2023-06-22T13:44:02;14.70;;;7.07;;
20966;SDS011;10642;50.682;18.510;2023-06-22T13:46:29;10.57;;;7.33;;
20966;SDS011;10642;50.682;18.510;2023-06-22T13:48:56;9.70;;;7.40;;
20966;SDS011;10642;50.682;18.510;2023-06-22T13:51:23;9.60;;;7.53;;
20966;SDS011;10642;50.682;18.510;2023-06-22T13:53:50;8.07;;;6.60;;
20966;SDS011;10642;50.682;18.510;2023-06-22T13:56:17;8.53;;;7.03;;
20966;SDS011;10642;50.682;18.510;2023-06-22T13:58:43;10.20;;;7.37;;
20966;SDS011;10642;50.682;18.510;2023-06-22T14:01:10;9.20;;;7.00;;
20966;SDS011;10642;50.682;18.510;2023-06-22T14:03:43;11.07;;;7.40;;
20966;SDS011;10642;50.682;18.510;2023-06-22T14:06:13;10.23;;;7.30;;
20966;SDS011;10642;50.682;18.510;2023-06-22T14:08:39;10.07;;;7.37;;
20966;SDS011;10642;50.682;18.510;2023-06-22T14:11:07;10.07;;;7.23;;
20966;SDS011;10642;50.682;18.510;2023-06-22T14:13:34;10.57;;;7.73;;
20966;SDS011;10642;50.682;18.510;2023-06-22T14:16:02;9.40;;;7.10;;
20966;SDS011;10642;50.682;18.510;2023-06-22T14:18:30;10.60;;;7.13;;
20966;SDS011;10642;50.682;18.510;2023-06-22T14:20:57;10.20;;;7.17;;
20966;SDS011;10642;50.682;18.510;2023-06-22T14:23:24;12.97;;;7.33;;